createdAt,value
2022-09-16T00:01:32.226Z,100962.19
2022-09-16T00:04:00.627Z,100959.13
2022-09-16T00:06:30.911Z,100965.97
2022-09-16T00:09:01.930Z,100957.28
2022-09-16T00:11:34.350Z,100856.34
2022-09-16T00:14:02.941Z,100958.84
2022-09-16T00:16:32.861Z,100956.00
2022-09-16T00:19:03.256Z,100959.81
2022-09-16T00:21:32.399Z,100957.53
2022-09-16T00:24:00.705Z,100966.16
2022-09-16T00:26:29.887Z,100952.22
2022-09-16T00:28:58.206Z,100963.53
2022-09-16T00:31:26.646Z,100970.00
2022-09-16T00:33:56.414Z,100968.78
2022-09-16T00:36:24.759Z,100965.69
2022-09-16T00:38:54.927Z,100964.53
2022-09-16T00:41:26.204Z,100963.25
2022-09-16T00:43:58.296Z,100970.38
2022-09-16T00:46:37.774Z,100969.16
2022-09-16T00:49:14.052Z,100945.03
2022-09-16T00:51:43.348Z,100966.78
2022-09-16T00:54:12.560Z,100968.41
2022-09-16T00:56:44.431Z,100971.88
2022-09-16T00:59:18.303Z,100974.72
2022-09-16T01:01:47.512Z,100974.53
2022-09-16T01:04:22.413Z,100907.03
2022-09-16T01:06:51.189Z,100964.75
2022-09-16T01:09:23.349Z,100964.13
2022-09-16T01:11:51.812Z,100966.47
2022-09-16T01:14:40.208Z,100964.47
2022-09-16T01:17:20.458Z,100958.28
2022-09-16T01:20:33.482Z,100956.34
2022-09-16T01:23:42.710Z,100986.63
2022-09-16T01:26:35.030Z,100983.50
2022-09-16T01:29:42.849Z,100984.84
2022-09-16T01:32:20.928Z,100980.28
2022-09-16T01:34:56.030Z,100988.88
2022-09-16T01:37:37.193Z,100984.44
2022-09-16T01:40:12.000Z,100969.28
2022-09-16T01:42:48.303Z,100990.13
2022-09-16T01:45:22.239Z,100985.88
2022-09-16T01:47:59.658Z,100986.91
2022-09-16T01:50:33.112Z,100989.66
2022-09-16T01:53:11.608Z,100990.69
2022-09-16T01:55:44.483Z,100979.22
2022-09-16T01:58:20.529Z,100984.28
2022-09-16T02:00:52.693Z,100987.34
2022-09-16T02:03:26.511Z,100987.28
2022-09-16T02:05:59.788Z,100979.28
2022-09-16T02:08:35.310Z,100976.84
2022-09-16T02:11:08.824Z,100984.22
2022-09-16T02:13:41.082Z,100931.56
2022-09-16T02:16:13.751Z,100976.72
2022-09-16T02:18:48.606Z,100979.28
2022-09-16T02:21:18.997Z,100990.59
2022-09-16T02:23:52.441Z,100987.97
2022-09-16T02:26:25.566Z,101001.00
2022-09-16T02:28:55.965Z,100992.28
2022-09-16T02:31:31.243Z,100997.41
2022-09-16T02:34:04.310Z,100989.34
2022-09-16T02:36:33.774Z,100990.34
2022-09-16T02:39:08.567Z,100990.25
2022-09-16T02:41:37.664Z,100986.00
2022-09-16T02:44:06.565Z,100983.56
2022-09-16T02:46:43.302Z,100978.25
2022-09-16T02:49:19.871Z,100978.31
2022-09-16T02:51:57.535Z,100977.38
2022-09-16T02:54:34.247Z,100982.72
2022-09-16T02:57:02.540Z,100971.75
2022-09-16T02:59:30.769Z,100967.41
2022-09-16T03:02:01.257Z,100970.88
2022-09-16T03:04:31.393Z,100971.72
2022-09-16T03:06:59.681Z,100969.81
2022-09-16T03:09:29.871Z,100970.53
2022-09-16T03:12:22.569Z,100980.34
2022-09-16T03:15:23.588Z,100960.69
2022-09-16T03:18:20.115Z,100979.13
2022-09-16T03:21:01.613Z,100989.91
2022-09-16T03:23:45.357Z,100966.59
2022-09-16T03:26:26.349Z,100960.22
2022-09-16T03:29:05.964Z,100961.56
2022-09-16T03:31:39.958Z,100963.84
2022-09-16T03:34:16.386Z,100954.53
2022-09-16T03:36:51.064Z,100951.25
2022-09-16T03:39:22.189Z,100955.00
2022-09-16T03:41:52.260Z,100958.94
2022-09-16T03:44:20.526Z,100958.34
2022-09-16T03:46:49.226Z,100959.16
2022-09-16T03:49:17.626Z,100970.47
2022-09-16T03:51:47.157Z,100969.59
2022-09-16T03:54:15.545Z,100966.28
2022-09-16T03:56:43.756Z,100961.56
2022-09-16T03:59:11.989Z,100965.25
2022-09-16T04:01:40.371Z,100967.59
2022-09-16T04:04:08.817Z,100960.94
2022-09-16T04:06:37.163Z,100961.56
2022-09-16T04:09:08.380Z,100963.00
2022-09-16T04:11:37.014Z,100959.16
2022-09-16T04:14:05.690Z,100957.41
2022-09-16T04:16:34.668Z,100951.91
2022-09-16T04:19:02.942Z,100953.38
2022-09-16T04:21:31.238Z,100948.66
2022-09-16T04:24:00.146Z,100945.09
2022-09-16T04:26:29.901Z,100945.06
2022-09-16T04:28:58.127Z,100946.66
2022-09-16T04:31:26.443Z,100942.31
2022-09-16T04:33:54.664Z,100953.97
2022-09-16T04:36:22.980Z,100957.41
2022-09-16T04:38:51.211Z,100964.25
2022-09-16T04:41:21.397Z,100956.78
2022-09-16T04:43:56.074Z,100956.19
2022-09-16T04:46:25.812Z,100953.56
2022-09-16T04:48:57.690Z,100952.56
2022-09-16T04:51:28.143Z,100947.75
2022-09-16T04:53:57.252Z,100947.44
2022-09-16T04:56:28.701Z,100953.72
2022-09-16T04:59:02.209Z,100949.38
2022-09-16T05:01:33.548Z,100937.56
2022-09-16T05:04:05.090Z,100946.53
2022-09-16T05:06:37.168Z,100946.09
2022-09-16T05:09:05.940Z,100953.69
2022-09-16T05:11:37.027Z,100953.69
2022-09-16T05:14:09.793Z,100951.59
2022-09-16T05:16:38.125Z,100951.19
2022-09-16T05:19:06.347Z,100960.31
2022-09-16T05:21:37.180Z,100959.38
2022-09-16T05:24:08.744Z,100939.69
2022-09-16T05:26:39.827Z,100951.59
2022-09-16T05:29:15.553Z,100961.47
2022-09-16T05:31:47.298Z,100958.59
2022-09-16T05:34:18.927Z,100961.84
2022-09-16T05:36:49.463Z,100969.03
2022-09-16T05:39:23.152Z,100978.63
2022-09-16T05:41:56.882Z,100947.84
2022-09-16T05:44:28.193Z,100962.44
2022-09-16T05:46:59.499Z,100962.75
2022-09-16T05:49:27.722Z,100966.81
2022-09-16T05:51:56.347Z,100971.47
2022-09-16T05:54:25.381Z,100967.06
2022-09-16T05:56:54.357Z,100961.47
2022-09-16T05:59:23.850Z,100968.38
2022-09-16T06:01:54.660Z,100975.97
2022-09-16T06:04:22.972Z,100990.78
2022-09-16T06:06:51.229Z,100973.03
2022-09-16T06:09:22.276Z,100986.97
2022-09-16T06:11:55.473Z,100977.25
2022-09-16T06:14:26.600Z,100981.72
2022-09-16T06:16:56.338Z,100987.53
2022-09-16T06:19:24.896Z,100990.72
2022-09-16T06:21:53.096Z,100981.13
2022-09-16T06:24:22.330Z,100994.47
2022-09-16T06:26:50.595Z,101003.19
2022-09-16T06:29:19.009Z,100995.59
2022-09-16T06:31:47.251Z,101001.84
2022-09-16T06:34:19.193Z,101008.31
2022-09-16T06:36:48.029Z,101003.38
2022-09-16T06:39:18.178Z,101010.28
2022-09-16T06:41:46.859Z,101007.50
2022-09-16T06:44:15.063Z,101005.66
2022-09-16T06:46:44.144Z,101002.88
2022-09-16T06:49:13.105Z,100985.41
2022-09-16T06:51:43.543Z,101001.78
2022-09-16T06:54:13.039Z,100990.41
2022-09-16T06:56:41.847Z,100984.22
2022-09-16T06:59:11.057Z,100987.66
2022-09-16T07:01:39.538Z,100991.16
2022-09-16T07:04:10.462Z,100993.56
2022-09-16T07:07:10.004Z,100996.66
2022-09-16T07:09:28.904Z,101051.41
2022-09-16T07:11:57.164Z,101063.41
2022-09-16T07:14:25.618Z,101050.19
2022-09-16T07:16:53.937Z,101038.28
2022-09-16T07:19:22.756Z,101025.59
2022-09-16T07:21:50.984Z,101015.19
2022-09-16T07:24:19.701Z,101007.22
2022-09-16T07:26:49.252Z,101014.78
2022-09-16T07:29:20.499Z,101012.25
2022-09-16T07:31:49.185Z,101016.06
2022-09-16T07:34:17.680Z,101012.97
2022-09-16T07:36:49.073Z,101011.97
2022-09-16T07:39:20.388Z,101014.66
2022-09-16T07:41:50.298Z,101011.75
2022-09-16T07:44:20.651Z,101015.28
2022-09-16T07:46:51.222Z,101012.19
2022-09-16T07:49:20.027Z,101018.94
2022-09-16T07:51:48.995Z,101018.88
2022-09-16T07:54:19.834Z,101017.63
2022-09-16T07:56:49.474Z,101023.97
2022-09-16T07:59:20.915Z,101027.13
2022-09-16T08:01:50.717Z,101023.94
2022-09-16T08:04:20.539Z,101027.16
2022-09-16T08:06:48.890Z,101018.16
2022-09-16T08:12:11.051Z,101018.97
2022-09-16T08:14:39.595Z,101033.97
2022-09-16T08:17:07.988Z,101046.38
2022-09-16T08:19:38.379Z,101054.78
2022-09-16T08:22:06.872Z,101059.13
2022-09-16T08:24:35.193Z,101054.78
2022-09-16T08:27:03.420Z,101059.06
2022-09-16T08:29:33.268Z,101066.09
2022-09-16T08:32:01.573Z,101059.94
2022-09-16T08:34:29.847Z,101062.91
2022-09-16T08:36:58.095Z,101069.97
2022-09-16T08:39:26.420Z,101070.03
2022-09-16T08:42:25.636Z,101072.19
2022-09-16T08:45:09.597Z,101047.38
2022-09-16T08:47:48.912Z,101082.28
2022-09-16T08:50:30.684Z,101082.72
2022-09-16T08:53:04.812Z,101088.31
2022-09-16T08:55:39.427Z,101093.16
2022-09-16T08:58:14.691Z,101086.19
2022-09-16T09:00:47.546Z,101084.75
2022-09-16T09:03:23.643Z,101095.47
2022-09-16T09:05:54.458Z,101087.41
2022-09-16T09:08:35.841Z,101102.16
2022-09-16T09:11:11.941Z,101109.03
2022-09-16T09:14:07.007Z,101106.81
2022-09-16T09:16:46.718Z,101106.53
2022-09-16T09:19:34.699Z,101148.50
2022-09-16T09:22:26.120Z,101143.13
2022-09-16T09:25:14.942Z,101130.16
2022-09-16T09:27:53.981Z,101122.22
2022-09-16T09:30:24.433Z,101097.84
2022-09-16T09:33:41.324Z,101116.09
2022-09-16T09:36:24.440Z,101113.25
2022-09-16T09:39:11.176Z,101107.38
2022-09-16T09:41:45.163Z,101109.22
2022-09-16T09:44:43.210Z,101106.44
2022-09-16T09:47:17.411Z,101116.06
2022-09-16T09:49:54.313Z,101120.50
2022-09-16T09:52:30.024Z,101118.84
2022-09-16T09:55:16.383Z,101121.69
2022-09-16T09:58:15.537Z,101111.38
2022-09-16T10:00:44.009Z,101107.41
2022-09-16T10:03:14.932Z,101093.75
2022-09-16T10:05:46.400Z,101091.59
2022-09-16T10:08:25.026Z,101101.25
2022-09-16T10:10:55.816Z,101099.38
2022-09-16T10:13:26.591Z,101097.16
2022-09-16T10:16:08.003Z,101092.16
2022-09-16T10:18:36.481Z,101089.19
2022-09-16T10:21:09.136Z,101090.81
2022-09-16T10:23:39.260Z,101090.97
2022-09-16T10:26:21.025Z,101090.59
2022-09-16T10:29:02.337Z,101089.44
2022-09-16T10:31:37.408Z,101082.69
2022-09-16T10:34:16.392Z,101079.81
2022-09-16T10:36:46.432Z,101084.97
2022-09-16T10:39:26.001Z,101066.66
2022-09-16T10:41:54.389Z,101086.25
2022-09-16T10:44:27.159Z,101084.56
2022-09-16T10:46:58.358Z,101067.91
2022-09-16T10:49:38.383Z,101091.34
2022-09-16T10:52:18.314Z,101083.81
2022-09-16T10:54:47.224Z,101088.28
2022-09-16T10:57:26.168Z,101075.63
2022-09-16T11:00:00.512Z,101084.72
2022-09-16T11:03:08.587Z,101102.00
2022-09-16T11:05:50.983Z,101098.44
2022-09-16T11:08:40.695Z,101109.09
2022-09-16T11:11:20.021Z,101102.78
2022-09-16T11:13:58.434Z,101104.47
2022-09-16T11:16:55.109Z,101100.00
2022-09-16T11:19:33.443Z,101104.19
2022-09-16T11:22:15.614Z,101104.34
2022-09-16T11:25:05.587Z,101107.06
2022-09-16T11:27:53.526Z,101106.59
2022-09-16T11:30:23.669Z,101007.63
2022-09-16T11:33:20.463Z,101109.84
2022-09-16T11:36:21.530Z,101108.22
2022-09-16T11:39:05.490Z,101115.63
2022-09-16T11:41:45.751Z,101113.88
2022-09-16T11:44:35.478Z,101116.75
2022-09-16T11:47:30.081Z,101109.06
2022-09-16T11:50:15.365Z,101109.66
2022-09-16T11:53:06.352Z,101114.50
2022-09-16T11:55:50.476Z,101120.94
2022-09-16T11:58:34.615Z,101117.22
2022-09-16T12:01:13.033Z,101118.88
2022-09-16T12:03:48.516Z,101113.47
2022-09-16T12:06:21.844Z,101111.00
2022-09-16T12:08:58.514Z,101098.84
2022-09-16T12:11:33.921Z,101118.00
2022-09-16T12:14:13.809Z,101122.44
2022-09-16T12:16:49.152Z,101126.47
2022-09-16T12:19:24.450Z,101138.34
2022-09-16T12:21:58.459Z,101151.91
2022-09-16T12:24:37.632Z,101113.00
2022-09-16T12:27:12.829Z,101131.47
2022-09-16T12:29:50.713Z,101144.78
2022-09-16T12:32:26.593Z,101129.88
2022-09-16T12:34:59.636Z,101144.63
2022-09-16T12:37:36.405Z,101114.72
2022-09-16T12:40:07.873Z,101136.94
2022-09-16T12:43:17.787Z,101139.34
2022-09-16T12:46:22.933Z,101159.97
2022-09-16T12:49:47.827Z,101182.44
2022-09-16T12:53:01.502Z,101129.25
2022-09-16T12:55:45.827Z,101152.34
2022-09-16T12:58:50.928Z,101174.00
2022-09-16T13:01:26.168Z,101154.53
2022-09-16T13:03:58.799Z,101155.66
2022-09-16T13:06:32.366Z,101149.31
2022-09-16T13:09:19.916Z,101159.56
2022-09-16T13:14:48.800Z,101134.63
2022-09-16T13:17:30.643Z,101128.53
2022-09-16T13:20:08.550Z,101148.56
2022-09-16T13:22:46.336Z,101148.47
2022-09-16T13:25:24.277Z,101152.75
2022-09-16T13:27:59.724Z,101154.22
2022-09-16T13:30:33.204Z,101150.53
2022-09-16T13:33:26.490Z,101138.72
2022-09-16T13:36:18.556Z,101033.59
2022-09-16T13:38:49.832Z,101142.56
2022-09-16T13:41:33.393Z,101137.03
2022-09-16T13:44:02.636Z,101130.66
2022-09-16T13:46:34.847Z,101102.22
2022-09-16T13:49:18.013Z,101119.16
2022-09-16T13:51:48.306Z,101124.16
2022-09-16T13:54:43.258Z,101118.41
2022-09-16T13:57:39.434Z,101111.00
2022-09-16T14:00:15.878Z,101106.59
2022-09-16T14:03:38.105Z,101142.94
2022-09-16T14:06:46.681Z,101099.94
2022-09-16T14:09:30.398Z,101114.06
2022-09-16T14:12:07.919Z,101123.16
2022-09-16T14:14:53.666Z,101120.63
2022-09-16T14:17:27.586Z,101137.47
2022-09-16T14:20:00.672Z,101138.03
2022-09-16T14:22:31.711Z,101134.22
2022-09-16T14:25:06.622Z,101132.69
2022-09-16T14:27:44.935Z,101128.19
2022-09-16T14:30:18.116Z,101120.63
2022-09-16T14:32:47.896Z,101117.31
2022-09-16T14:35:20.953Z,101109.19
2022-09-16T14:37:55.320Z,101108.41
2022-09-16T14:40:26.393Z,101090.25
2022-09-16T14:42:59.494Z,101104.84
2022-09-16T14:45:30.396Z,101108.78
2022-09-16T14:48:04.155Z,101105.59
2022-09-16T14:50:37.367Z,101107.41
2022-09-16T14:53:24.246Z,101113.16
2022-09-16T14:55:55.956Z,101084.34
2022-09-16T14:58:27.207Z,101088.97
2022-09-16T15:01:00.766Z,101094.88
2022-09-16T15:03:38.911Z,101103.81
2022-09-16T15:06:13.066Z,101086.63
2022-09-16T15:08:47.684Z,101096.00
2022-09-16T15:11:43.639Z,101090.16
2022-09-16T15:14:11.295Z,101097.47
2022-09-16T15:16:45.215Z,101097.06
2022-09-16T15:19:22.343Z,101097.44
2022-09-16T15:21:51.251Z,101031.97
2022-09-16T15:24:28.332Z,101092.19
2022-09-16T15:26:57.527Z,101111.56
2022-09-16T15:29:32.797Z,101108.25
2022-09-16T15:32:19.451Z,101117.72
2022-09-16T15:34:49.870Z,101114.28
2022-09-16T15:37:35.624Z,101106.03
2022-09-16T15:40:21.659Z,100995.41
2022-09-16T15:43:02.581Z,101111.75
2022-09-16T15:45:30.919Z,101121.59
2022-09-16T15:48:02.705Z,101112.56
2022-09-16T15:50:40.103Z,101126.69
2022-09-16T15:53:12.858Z,101122.81
2022-09-16T15:55:54.527Z,101113.66
2022-09-16T15:58:39.536Z,101122.69
2022-09-16T16:01:13.925Z,101119.34
2022-09-16T16:03:57.682Z,101127.78
2022-09-16T16:06:51.763Z,101104.13
2022-09-16T16:09:44.419Z,101112.56
2022-09-16T16:12:18.275Z,101121.78
2022-09-16T16:14:47.095Z,101115.50
2022-09-16T16:17:18.579Z,101118.50
2022-09-16T16:19:49.461Z,101098.09
2022-09-16T16:22:19.224Z,101102.47
2022-09-16T16:24:47.973Z,101107.03
2022-09-16T16:27:17.626Z,101115.34
2022-09-16T16:29:45.979Z,101122.56
2022-09-16T16:32:16.635Z,101117.16
2022-09-16T16:34:47.318Z,101110.53
2022-09-16T16:37:40.291Z,101106.03
2022-09-16T16:40:07.573Z,101118.41
2022-09-16T16:42:37.358Z,101081.25
2022-09-16T16:45:07.064Z,101132.63
2022-09-16T16:47:35.646Z,101111.75
2022-09-16T16:50:04.261Z,101126.97
2022-09-16T16:52:33.087Z,101127.41
2022-09-16T16:55:01.413Z,101125.50
2022-09-16T16:57:29.681Z,101127.97
2022-09-16T16:59:59.320Z,101114.66
2022-09-16T17:02:27.757Z,101101.66
2022-09-16T17:04:56.113Z,101133.69
2022-09-16T17:07:26.554Z,101122.22
2022-09-16T17:09:57.088Z,101122.78
2022-09-16T17:12:25.703Z,101137.41
2022-09-16T17:14:54.186Z,101136.69
2022-09-16T17:17:27.770Z,101128.00
2022-09-16T17:19:59.590Z,101125.59
2022-09-16T17:22:27.899Z,101133.69
2022-09-16T17:24:56.555Z,101126.84
2022-09-16T17:27:27.121Z,100924.69
2022-09-16T17:29:56.065Z,101137.72
2022-09-16T17:32:26.010Z,101141.59
2022-09-16T17:34:54.387Z,101140.22
2022-09-16T17:37:22.807Z,101136.56
2022-09-16T17:39:51.182Z,101139.88
2022-09-16T17:42:20.587Z,101128.13
2022-09-16T17:44:49.020Z,101128.31
2022-09-16T17:47:17.596Z,101138.59
2022-09-16T17:49:47.427Z,101130.88
2022-09-16T17:52:15.891Z,101131.88
2022-09-16T17:54:44.462Z,101142.03
2022-09-16T17:57:12.801Z,101139.84
2022-09-16T17:59:41.175Z,101152.81
2022-09-16T18:02:12.115Z,101153.34
2022-09-16T18:04:43.032Z,101112.19
2022-09-16T18:07:12.894Z,101145.09
2022-09-16T18:09:41.315Z,101150.50
2022-09-16T18:12:09.842Z,101132.09
2022-09-16T18:14:38.635Z,101148.16
2022-09-16T18:17:07.365Z,101143.91
2022-09-16T18:19:35.935Z,101150.63
2022-09-16T18:22:05.051Z,101149.44
2022-09-16T18:24:34.704Z,101156.56
2022-09-16T18:27:03.130Z,101160.25
2022-09-16T18:29:31.671Z,101149.38
2022-09-16T18:32:00.283Z,101150.94
2022-09-16T18:34:33.211Z,101120.78
2022-09-16T18:37:02.082Z,101145.50
2022-09-16T18:39:30.525Z,101152.63
2022-09-16T18:42:00.317Z,101149.72
2022-09-16T18:44:28.943Z,101154.75
2022-09-16T18:46:57.407Z,101156.25
2022-09-16T18:49:27.106Z,101152.47
2022-09-16T18:51:55.979Z,101136.38
2022-09-16T18:54:28.588Z,101163.06
2022-09-16T18:57:00.150Z,101167.34
2022-09-16T18:59:31.131Z,101173.34
2022-09-16T19:02:02.702Z,101084.88
2022-09-16T19:04:34.223Z,101161.59
2022-09-16T19:07:07.966Z,101153.56
2022-09-16T19:09:39.824Z,101151.94
2022-09-16T19:12:12.273Z,101158.97
2022-09-16T19:14:41.155Z,101169.59
2022-09-16T19:17:10.431Z,101185.50
2022-09-16T19:19:39.054Z,101172.00
2022-09-16T19:22:07.341Z,101182.56
2022-09-16T19:24:37.218Z,101182.16
2022-09-16T19:27:06.095Z,101176.97
2022-09-16T19:29:35.710Z,101185.94
2022-09-16T19:32:04.353Z,101181.44
2022-09-16T19:34:32.674Z,101190.16
2022-09-16T19:37:01.002Z,101165.88
2022-09-16T19:39:29.383Z,101205.75
2022-09-16T19:42:03.186Z,101209.59
2022-09-16T19:44:32.001Z,101182.50
2022-09-16T19:47:02.390Z,101186.72
2022-09-16T19:49:30.810Z,101188.22
2022-09-16T19:51:59.333Z,101170.31
2022-09-16T19:54:27.970Z,101190.38
2022-09-16T19:56:56.641Z,101179.22
2022-09-16T19:59:25.242Z,101196.88
2022-09-16T20:01:53.656Z,101185.81
2022-09-16T20:04:23.638Z,101208.50
2022-09-16T20:06:52.002Z,101195.88
2022-09-16T20:09:20.802Z,101196.63
2022-09-16T20:11:50.199Z,101197.63
2022-09-16T20:14:21.341Z,101174.88
2022-09-16T20:16:51.590Z,101138.91
2022-09-16T20:19:22.027Z,101161.69
2022-09-16T20:21:50.536Z,101183.44
2022-09-16T20:24:23.123Z,101213.38
2022-09-16T20:26:53.775Z,101209.81
2022-09-16T20:29:22.169Z,101207.28
2022-09-16T20:31:52.666Z,101203.69
2022-09-16T20:34:24.246Z,101185.41
2022-09-16T20:36:53.026Z,101215.50
2022-09-16T20:39:22.205Z,101222.56
2022-09-16T20:41:52.631Z,101221.47
2022-09-16T20:44:21.162Z,101208.94
2022-09-16T20:46:50.141Z,101227.44
2022-09-16T20:49:24.666Z,101234.47
2022-09-16T20:51:53.163Z,101230.97
2022-09-16T20:54:21.537Z,101235.38
2022-09-16T20:56:50.459Z,101230.91
2022-09-16T20:59:20.970Z,101232.88
2022-09-16T21:01:50.320Z,101236.13
2022-09-16T21:04:22.102Z,101211.88
2022-09-16T21:06:50.624Z,101240.44
2022-09-16T21:09:20.439Z,101113.81
2022-09-16T21:11:51.230Z,101234.19
2022-09-16T21:14:21.731Z,101243.75
2022-09-16T21:16:51.659Z,101260.06
2022-09-16T21:19:20.281Z,101267.38
2022-09-16T21:21:49.990Z,101256.09
2022-09-16T21:24:18.956Z,101260.41
2022-09-16T21:26:47.545Z,101264.13
2022-09-16T21:29:18.963Z,101253.41
2022-09-16T21:31:48.486Z,101263.13
2022-09-16T21:34:19.492Z,101267.56
2022-09-16T21:36:50.314Z,101257.78
2022-09-16T21:39:20.806Z,101257.81
2022-09-16T21:41:49.799Z,101268.50
2022-09-16T21:44:18.893Z,101247.22
2022-09-16T21:46:49.602Z,101248.69
2022-09-16T21:49:23.205Z,101265.13
2022-09-16T21:51:54.289Z,101268.13
2022-09-16T21:54:23.599Z,101271.53
2022-09-16T21:56:52.761Z,101271.16
2022-09-16T21:59:21.760Z,101267.47
2022-09-16T22:01:51.442Z,101259.31
2022-09-16T22:04:23.186Z,101254.19
2022-09-16T22:06:55.518Z,101268.97
2022-09-16T22:09:26.671Z,101278.59
2022-09-16T22:11:55.447Z,101241.50
2022-09-16T22:14:23.835Z,101274.81
2022-09-16T22:16:52.112Z,101272.00
2022-09-16T22:19:21.093Z,101286.91
2022-09-16T22:21:52.740Z,101306.59
2022-09-16T22:24:21.501Z,101306.19
2022-09-16T22:26:52.058Z,101293.03
2022-09-16T22:29:20.659Z,101294.19
2022-09-16T22:31:49.236Z,101278.28
2022-09-16T22:34:18.035Z,101278.69
2022-09-16T22:36:46.611Z,101256.56
2022-09-16T22:39:19.769Z,101278.78
2022-09-16T22:41:48.874Z,101289.06
2022-09-16T22:44:17.181Z,101287.84
2022-09-16T22:46:48.506Z,101303.72
2022-09-16T22:49:18.701Z,101306.31
2022-09-16T22:51:47.126Z,101296.47
2022-09-16T22:54:16.971Z,101289.38
2022-09-16T22:56:45.928Z,101298.44
2022-09-16T22:59:19.618Z,101249.50
2022-09-16T23:01:48.826Z,101292.50
2022-09-16T23:04:17.262Z,101278.59
2022-09-16T23:06:45.615Z,101284.66
2022-09-16T23:09:16.262Z,101253.00
2022-09-16T23:11:44.998Z,101283.13
2022-09-16T23:14:15.927Z,101275.91
2022-09-16T23:16:44.301Z,101265.25
2022-09-16T23:19:13.311Z,101291.50
2022-09-16T23:21:42.559Z,101294.13
2022-09-16T23:24:17.002Z,101294.56
2022-09-16T23:26:46.984Z,101294.47
2022-09-16T23:29:18.263Z,101290.06
2022-09-16T23:31:47.175Z,101288.13
2022-09-16T23:34:19.067Z,101283.47
2022-09-16T23:36:48.059Z,101311.59
2022-09-16T23:39:19.228Z,101297.59
2022-09-16T23:41:49.465Z,101320.00
2022-09-16T23:44:18.203Z,101318.94
2022-09-16T23:46:46.595Z,101299.63
2022-09-16T23:49:20.208Z,101279.16
2022-09-16T23:51:49.152Z,101318.59
2022-09-16T23:54:18.832Z,101301.91
2022-09-16T23:56:47.608Z,101317.66
2022-09-16T23:59:16.161Z,101314.13
